createdAt,value
2023-01-29T00:03:58.999Z,101212.87
2023-01-29T00:09:01.167Z,101205.16
2023-01-29T00:14:03.360Z,101205.28
2023-01-29T00:19:05.635Z,101223.19
2023-01-29T00:24:08.037Z,101222.34
2023-01-29T00:29:10.290Z,101220.78
2023-01-29T00:34:12.418Z,101228.03
2023-01-29T00:39:14.566Z,101228.75
2023-01-29T00:44:38.256Z,101216.78
2023-01-29T00:49:40.369Z,101243.66
2023-01-29T00:54:43.698Z,101250.09
2023-01-29T00:59:45.895Z,101240.25
2023-01-29T01:04:47.977Z,101251.53
2023-01-29T01:10:08.837Z,101248.91
2023-01-29T01:15:11.015Z,101255.84
2023-01-29T01:20:13.375Z,101250.41
2023-01-29T01:25:16.174Z,101252.75
2023-01-29T01:30:18.598Z,101254.53
2023-01-29T01:35:21.044Z,101262.34
2023-01-29T01:40:25.012Z,101260.78
2023-01-29T01:45:31.396Z,101254.69
2023-01-29T01:50:39.867Z,101265.78
2023-01-29T01:55:47.442Z,101250.69
2023-01-29T02:00:50.140Z,101257.63
2023-01-29T02:06:13.995Z,101249.38
2023-01-29T02:11:16.811Z,101258.44
2023-01-29T02:16:22.419Z,101266.75
2023-01-29T02:21:25.075Z,101270.16
2023-01-29T02:26:48.654Z,101277.03
2023-01-29T02:31:56.081Z,101278.41
2023-01-29T02:37:11.741Z,101275.38
2023-01-29T02:42:30.983Z,101289.06
2023-01-29T02:47:52.467Z,101282.09
2023-01-29T02:53:12.176Z,101303.47
2023-01-29T02:58:22.556Z,101305.25
2023-01-29T03:03:36.236Z,101305.53
2023-01-29T03:08:43.270Z,101312.47
2023-01-29T03:13:59.997Z,101308.66
2023-01-29T03:19:08.533Z,101315.41
2023-01-29T03:24:31.780Z,101303.41
2023-01-29T03:29:55.392Z,101302.25
2023-01-29T03:35:01.785Z,101315.69
2023-01-29T03:40:05.508Z,101321.34
2023-01-29T03:45:45.136Z,101332.72
2023-01-29T03:51:12.636Z,101333.72
2023-01-29T03:56:45.496Z,101332.97
2023-01-29T04:01:54.555Z,101324.47
2023-01-29T04:07:02.535Z,101329.78
2023-01-29T04:12:09.276Z,101308.88
2023-01-29T04:17:15.930Z,101311.06
2023-01-29T04:22:23.149Z,101322.81
2023-01-29T04:27:28.401Z,101312.75
2023-01-29T04:32:51.771Z,101322.94
2023-01-29T04:38:08.211Z,101317.41
2023-01-29T04:43:21.499Z,101303.63
2023-01-29T04:48:23.505Z,101311.59
2023-01-29T04:53:49.319Z,101326.69
2023-01-29T04:59:23.807Z,101326.94
2023-01-29T05:04:27.719Z,101327.97
2023-01-29T05:09:31.320Z,101320.12
2023-01-29T05:14:35.650Z,101311.16
2023-01-29T05:19:37.864Z,101317.84
2023-01-29T05:24:41.111Z,101313.84
2023-01-29T05:29:47.739Z,101314.44
2023-01-29T05:34:49.819Z,101302.22
2023-01-29T05:39:51.909Z,101312.84
2023-01-29T05:44:53.997Z,101308.88
2023-01-29T05:49:56.125Z,101304.72
2023-01-29T05:54:58.254Z,101323.66
2023-01-29T06:00:01.574Z,101327.84
2023-01-29T06:05:04.007Z,101310.22
2023-01-29T06:10:06.646Z,101338.91
2023-01-29T06:15:09.232Z,101340.38
2023-01-29T06:20:11.966Z,101323.78
2023-01-29T06:25:14.195Z,101336.09
2023-01-29T06:30:18.211Z,101372.41
2023-01-29T06:35:21.685Z,101358.13
2023-01-29T06:40:23.848Z,101378.91
2023-01-29T06:45:26.055Z,101380.78
2023-01-29T06:50:28.258Z,101382.72
2023-01-29T06:55:30.361Z,101394.16
2023-01-29T07:00:33.044Z,101390.13
2023-01-29T07:05:35.246Z,101389.50
2023-01-29T07:10:37.603Z,101385.94
2023-01-29T07:15:39.802Z,101386.66
2023-01-29T07:20:43.111Z,101383.84
2023-01-29T07:25:45.583Z,101368.94
2023-01-29T07:30:47.842Z,101366.28
2023-01-29T07:35:50.614Z,101369.88
2023-01-29T07:40:54.371Z,101376.41
2023-01-29T07:46:03.485Z,101364.47
2023-01-29T07:51:06.810Z,101352.56
2023-01-29T07:56:08.910Z,101354.47
2023-01-29T08:01:11.134Z,101349.00
2023-01-29T08:06:13.315Z,101349.47
2023-01-29T08:11:15.589Z,101322.19
2023-01-29T08:16:17.911Z,101353.75
2023-01-29T08:21:20.067Z,101370.38
2023-01-29T08:26:22.643Z,101383.19
2023-01-29T08:31:24.793Z,101387.28
2023-01-29T08:36:26.929Z,101374.94
2023-01-29T08:41:29.071Z,101378.81
2023-01-29T08:46:34.356Z,101400.16
2023-01-29T08:51:36.621Z,101410.56
2023-01-29T08:56:40.250Z,101428.25
2023-01-29T09:01:42.418Z,101436.31
2023-01-29T09:06:44.557Z,101434.97
2023-01-29T09:11:46.735Z,101434.28
2023-01-29T09:16:48.896Z,101412.25
2023-01-29T09:21:51.007Z,101433.16
2023-01-29T09:26:53.080Z,101423.41
2023-01-29T09:31:55.271Z,101413.53
2023-01-29T09:36:58.303Z,101440.37
2023-01-29T09:42:13.953Z,101445.09
2023-01-29T09:47:17.941Z,101419.47
2023-01-29T09:52:30.101Z,101446.84
2023-01-29T09:57:40.820Z,101422.69
2023-01-29T10:02:59.205Z,101447.16
2023-01-29T10:08:04.205Z,101420.69
2023-01-29T10:13:31.722Z,101437.00
2023-01-29T10:18:45.331Z,101440.75
2023-01-29T10:23:54.093Z,101444.53
2023-01-29T10:28:59.616Z,101441.19
2023-01-29T10:34:14.384Z,101435.06
2023-01-29T10:39:24.478Z,101443.75
2023-01-29T10:44:51.464Z,101437.19
2023-01-29T10:50:15.533Z,101434.53
2023-01-29T10:55:26.752Z,101435.66
2023-01-29T11:00:37.159Z,101425.38
2023-01-29T11:06:02.272Z,101397.84
2023-01-29T11:11:12.987Z,101397.34
2023-01-29T11:16:15.365Z,101402.91
2023-01-29T11:21:17.463Z,101398.00
2023-01-29T11:26:23.974Z,101370.19
2023-01-29T11:31:29.532Z,101359.78
2023-01-29T11:36:38.828Z,101348.19
2023-01-29T11:42:01.073Z,101366.81
2023-01-29T11:47:16.234Z,101343.81
2023-01-29T11:52:21.818Z,101335.66
2023-01-29T11:57:40.651Z,101324.50
2023-01-29T12:02:46.061Z,101331.94
2023-01-29T12:07:51.446Z,101334.09
2023-01-29T12:13:09.862Z,101322.59
2023-01-29T12:18:57.713Z,101318.56
2023-01-29T12:24:03.450Z,101324.94
2023-01-29T12:29:17.860Z,101316.16
2023-01-29T12:34:27.715Z,101314.59
2023-01-29T12:39:30.231Z,101310.34
2023-01-29T12:44:42.494Z,101328.75
2023-01-29T12:49:50.585Z,101320.88
2023-01-29T12:55:00.596Z,101300.75
2023-01-29T13:00:09.998Z,101306.88
2023-01-29T13:05:26.452Z,101298.47
2023-01-29T13:10:36.266Z,101286.06
2023-01-29T13:15:44.219Z,101276.69
2023-01-29T13:20:49.808Z,101268.22
2023-01-29T13:25:54.951Z,101253.78
2023-01-29T13:31:31.648Z,101252.19
2023-01-29T13:36:35.260Z,101246.69
2023-01-29T13:41:42.563Z,101244.13
2023-01-29T13:46:52.435Z,101251.66
2023-01-29T13:51:54.749Z,101259.44
2023-01-29T13:57:01.121Z,101239.78
2023-01-29T14:02:18.749Z,101262.97
2023-01-29T14:07:50.017Z,101232.00
2023-01-29T14:13:18.025Z,101261.56
2023-01-29T14:18:22.145Z,101242.66
2023-01-29T14:23:28.613Z,101252.22
2023-01-29T14:28:33.918Z,101258.81
2023-01-29T14:33:41.852Z,101258.06
2023-01-29T14:38:51.891Z,101277.44
2023-01-29T14:44:32.095Z,101279.38
2023-01-29T14:49:54.495Z,101275.72
2023-01-29T14:55:04.353Z,101263.63
2023-01-29T15:00:22.035Z,101274.88
2023-01-29T15:05:38.990Z,101268.00
2023-01-29T15:10:45.946Z,101275.28
2023-01-29T15:15:55.187Z,101267.69
2023-01-29T15:21:11.877Z,101279.41
2023-01-29T15:26:19.823Z,101264.41
2023-01-29T15:31:22.392Z,101260.63
2023-01-29T15:36:31.233Z,101266.78
2023-01-29T15:41:33.328Z,101273.81
2023-01-29T15:46:40.052Z,101254.72
2023-01-29T15:51:42.471Z,101271.06
2023-01-29T15:56:51.900Z,101275.31
2023-01-29T16:01:54.271Z,101284.63
2023-01-29T16:07:00.431Z,101271.19
2023-01-29T16:12:03.240Z,101276.91
2023-01-29T16:17:24.178Z,101276.72
2023-01-29T16:22:32.737Z,101277.34
2023-01-29T16:27:35.383Z,101280.84
2023-01-29T16:32:37.593Z,101292.59
2023-01-29T16:37:39.733Z,101301.34
2023-01-29T16:42:42.179Z,101288.78
2023-01-29T16:47:44.367Z,101240.69
2023-01-29T16:53:05.547Z,101297.28
2023-01-29T16:58:17.207Z,101312.78
2023-01-29T17:03:20.132Z,101311.28
2023-01-29T17:08:32.442Z,101297.63
2023-01-29T17:13:45.281Z,101315.78
2023-01-29T17:18:47.365Z,101313.19
2023-01-29T17:23:50.004Z,101313.16
2023-01-29T17:28:53.808Z,101304.69
2023-01-29T17:33:56.145Z,101299.59
2023-01-29T17:38:58.196Z,101282.00
2023-01-29T17:44:00.297Z,101266.06
2023-01-29T17:49:04.473Z,101284.09
2023-01-29T17:54:06.604Z,101266.09
2023-01-29T17:59:19.869Z,101270.31
2023-01-29T18:04:22.240Z,101249.63
2023-01-29T18:09:24.781Z,101247.00
2023-01-29T18:14:26.849Z,101256.53
2023-01-29T18:19:31.256Z,101261.78
2023-01-29T18:24:34.113Z,101238.25
2023-01-29T18:29:36.255Z,101231.41
2023-01-29T18:34:38.438Z,101250.41
2023-01-29T18:39:40.581Z,101232.31
2023-01-29T18:44:42.864Z,101238.66
2023-01-29T18:49:45.350Z,101246.28
2023-01-29T18:54:47.603Z,101239.72
2023-01-29T18:59:49.719Z,101251.63
2023-01-29T19:04:52.054Z,101246.63
2023-01-29T19:09:54.221Z,101256.53
2023-01-29T19:14:59.785Z,101250.19
2023-01-29T19:20:02.351Z,101253.22
2023-01-29T19:25:05.240Z,101219.50
2023-01-29T19:30:08.477Z,101249.31
2023-01-29T19:35:10.629Z,101232.34
2023-01-29T19:40:12.931Z,101227.28
2023-01-29T19:45:15.479Z,101239.91
2023-01-29T19:50:18.114Z,101227.66
2023-01-29T19:55:21.216Z,101228.12
2023-01-29T20:00:23.583Z,101227.34
2023-01-29T20:05:27.266Z,101223.13
2023-01-29T20:10:29.454Z,101235.72
2023-01-29T20:15:32.013Z,101225.66
2023-01-29T20:20:34.094Z,101229.66
2023-01-29T20:25:37.436Z,101217.38
2023-01-29T20:30:41.054Z,101210.16
2023-01-29T20:35:45.124Z,101200.38
2023-01-29T20:40:47.456Z,101202.91
2023-01-29T20:45:49.559Z,101197.94
2023-01-29T20:50:51.880Z,101200.72
2023-01-29T20:55:54.306Z,101199.37
2023-01-29T21:00:56.740Z,101216.37
2023-01-29T21:05:59.287Z,101212.50
2023-01-29T21:11:02.022Z,101219.22
2023-01-29T21:16:04.627Z,101221.28
2023-01-29T21:21:06.808Z,101212.87
2023-01-29T21:26:09.279Z,101230.84
2023-01-29T21:31:14.570Z,101238.06
2023-01-29T21:36:17.080Z,101232.53
2023-01-29T21:41:19.319Z,101234.72
2023-01-29T21:46:21.606Z,101241.09
2023-01-29T21:51:24.231Z,101230.19
2023-01-29T21:56:32.361Z,101238.09
2023-01-29T22:01:37.571Z,101225.66
2023-01-29T22:06:41.023Z,101219.25
2023-01-29T22:11:43.249Z,101213.53
2023-01-29T22:16:50.096Z,101211.03
2023-01-29T22:21:56.329Z,101196.06
2023-01-29T22:26:58.456Z,101163.97
2023-01-29T22:32:00.879Z,101185.59
2023-01-29T22:37:03.087Z,101169.91
2023-01-29T22:42:07.965Z,101112.63
2023-01-29T22:47:10.253Z,101165.84
2023-01-29T22:52:12.400Z,101157.25
2023-01-29T22:57:15.947Z,101165.00
2023-01-29T23:02:18.142Z,101156.06
2023-01-29T23:07:20.321Z,101144.16
2023-01-29T23:12:22.488Z,101152.00
2023-01-29T23:17:24.728Z,101146.84
2023-01-29T23:22:26.970Z,101146.28
2023-01-29T23:27:29.213Z,101144.16
2023-01-29T23:32:33.138Z,101113.94
2023-01-29T23:37:35.383Z,101128.19
2023-01-29T23:42:37.582Z,101125.75
2023-01-29T23:47:39.890Z,101117.03
2023-01-29T23:52:42.215Z,101112.03
2023-01-29T23:57:44.697Z,101110.38
